sensor_id;sensor_type;location;lat;lon;timestamp;P1;P2;P0
12246;PMS7003;6186;52.022;4.692;2023-10-13T00:02:07;5.50;3.50;1.50
12246;PMS7003;6186;52.022;4.692;2023-10-13T00:04:32;5.50;4.25;1.75
12246;PMS7003;6186;52.022;4.692;2023-10-13T00:06:58;4.50;4.00;2.00
12246;PMS7003;6186;52.022;4.692;2023-10-13T00:09:23;6.00;5.25;3.00
12246;PMS7003;6186;52.022;4.692;2023-10-13T00:11:49;4.80;4.20;2.00
12246;PMS7003;6186;52.022;4.692;2023-10-13T00:14:15;5.00;4.00;2.00
12246;PMS7003;6186;52.022;4.692;2023-10-13T00:16:40;5.75;4.75;2.00
12246;PMS7003;6186;52.022;4.692;2023-10-13T00:19:05;5.00;5.00;2.75
12246;PMS7003;6186;52.022;4.692;2023-10-13T00:21:30;6.25;5.00;2.25
12246;PMS7003;6186;52.022;4.692;2023-10-13T00:23:55;4.00;4.00;2.25
12246;PMS7003;6186;52.022;4.692;2023-10-13T00:26:22;5.25;4.75;3.00
12246;PMS7003;6186;52.022;4.692;2023-10-13T00:28:48;7.00;6.00;2.80
12246;PMS7003;6186;52.022;4.692;2023-10-13T00:31:13;7.25;6.75;4.00
12246;PMS7003;6186;52.022;4.692;2023-10-13T00:33:39;7.75;7.00;3.75
12246;PMS7003;6186;52.022;4.692;2023-10-13T00:36:05;5.40;5.00;3.60
12246;PMS7003;6186;52.022;4.692;2023-10-13T00:38:31;6.40;5.20;3.00
12246;PMS7003;6186;52.022;4.692;2023-10-13T00:40:56;7.25;6.00;3.00
12246;PMS7003;6186;52.022;4.692;2023-10-13T00:43:22;7.00;7.00;3.75
12246;PMS7003;6186;52.022;4.692;2023-10-13T00:48:17;7.00;7.00;4.00
12246;PMS7003;6186;52.022;4.692;2023-10-13T00:50:42;6.00;6.00;4.00
12246;PMS7003;6186;52.022;4.692;2023-10-13T00:53:08;6.00;6.00;3.00
12246;PMS7003;6186;52.022;4.692;2023-10-13T00:55:34;9.60;7.60;4.00
12246;PMS7003;6186;52.022;4.692;2023-10-13T00:57:59;7.25;7.25;4.00
12246;PMS7003;6186;52.022;4.692;2023-10-13T01:00:26;7.00;6.60;3.80
12246;PMS7003;6186;52.022;4.692;2023-10-13T01:02:54;8.00;6.00;3.00
12246;PMS7003;6186;52.022;4.692;2023-10-13T01:05:20;6.00;5.40;3.00
12246;PMS7003;6186;52.022;4.692;2023-10-13T01:07:46;7.25;6.00;3.00
12246;PMS7003;6186;52.022;4.692;2023-10-13T01:10:12;6.00;5.20;3.60
12246;PMS7003;6186;52.022;4.692;2023-10-13T01:12:37;7.00;7.00;4.00
12246;PMS7003;6186;52.022;4.692;2023-10-13T01:15:02;6.00;5.75;3.00
12246;PMS7003;6186;52.022;4.692;2023-10-13T01:17:27;6.25;6.25;2.00
12246;PMS7003;6186;52.022;4.692;2023-10-13T01:19:52;7.25;6.25;4.00
12246;PMS7003;6186;52.022;4.692;2023-10-13T01:22:18;7.00;6.25;3.00
12246;PMS7003;6186;52.022;4.692;2023-10-13T01:24:43;8.00;5.50;3.00
12246;PMS7003;6186;52.022;4.692;2023-10-13T01:27:08;5.75;5.50;3.00
12246;PMS7003;6186;52.022;4.692;2023-10-13T01:29:33;6.25;5.00;3.00
12246;PMS7003;6186;52.022;4.692;2023-10-13T01:31:59;5.50;4.00;2.00
12246;PMS7003;6186;52.022;4.692;2023-10-13T01:34:24;4.00;4.00;2.00
12246;PMS7003;6186;52.022;4.692;2023-10-13T01:36:52;6.00;5.75;2.25
12246;PMS7003;6186;52.022;4.692;2023-10-13T01:39:22;7.00;5.00;2.40
12246;PMS7003;6186;52.022;4.692;2023-10-13T01:41:49;6.00;5.20;3.00
12246;PMS7003;6186;52.022;4.692;2023-10-13T01:44:14;7.00;6.00;3.00
12246;PMS7003;6186;52.022;4.692;2023-10-13T01:46:39;4.00;4.00;2.75
12246;PMS7003;6186;52.022;4.692;2023-10-13T01:49:05;5.75;4.50;2.00
12246;PMS7003;6186;52.022;4.692;2023-10-13T01:51:30;9.00;7.00;4.00
12246;PMS7003;6186;52.022;4.692;2023-10-13T01:53:55;8.75;5.00;2.00
12246;PMS7003;6186;52.022;4.692;2023-10-13T01:56:20;6.25;5.75;2.75
12246;PMS7003;6186;52.022;4.692;2023-10-13T01:58:45;5.50;5.00;2.00
12246;PMS7003;6186;52.022;4.692;2023-10-13T02:01:11;6.00;5.25;2.75
12246;PMS7003;6186;52.022;4.692;2023-10-13T02:03:36;6.75;5.00;2.00
12246;PMS7003;6186;52.022;4.692;2023-10-13T02:06:02;5.00;4.25;2.00
12246;PMS7003;6186;52.022;4.692;2023-10-13T02:08:27;7.00;4.50;2.25
12246;PMS7003;6186;52.022;4.692;2023-10-13T02:10:53;4.25;4.00;3.00
12246;PMS7003;6186;52.022;4.692;2023-10-13T02:13:21;4.40;4.00;1.40
12246;PMS7003;6186;52.022;4.692;2023-10-13T02:15:47;4.40;4.00;2.00
12246;PMS7003;6186;52.022;4.692;2023-10-13T02:18:14;5.00;5.00;2.00
12246;PMS7003;6186;52.022;4.692;2023-10-13T02:20:40;5.00;5.00;2.60
12246;PMS7003;6186;52.022;4.692;2023-10-13T02:23:05;5.50;5.50;2.00
12246;PMS7003;6186;52.022;4.692;2023-10-13T02:25:31;5.00;5.00;2.50
12246;PMS7003;6186;52.022;4.692;2023-10-13T02:27:56;4.75;4.00;2.00
12246;PMS7003;6186;52.022;4.692;2023-10-13T02:30:21;4.00;3.50;2.00
12246;PMS7003;6186;52.022;4.692;2023-10-13T02:32:46;7.75;5.00;2.00
12246;PMS7003;6186;52.022;4.692;2023-10-13T02:35:11;5.00;5.00;2.00
12246;PMS7003;6186;52.022;4.692;2023-10-13T02:37:37;5.50;4.50;2.00
12246;PMS7003;6186;52.022;4.692;2023-10-13T02:40:02;4.00;4.00;1.50
12246;PMS7003;6186;52.022;4.692;2023-10-13T02:42:27;4.00;4.00;2.00
12246;PMS7003;6186;52.022;4.692;2023-10-13T02:44:53;5.00;5.00;3.00
12246;PMS7003;6186;52.022;4.692;2023-10-13T02:47:18;5.00;4.00;2.00
12246;PMS7003;6186;52.022;4.692;2023-10-13T02:49:43;5.25;4.75;2.00
12246;PMS7003;6186;52.022;4.692;2023-10-13T02:52:11;3.00;3.00;1.00
12246;PMS7003;6186;52.022;4.692;2023-10-13T02:54:37;4.00;3.40;1.00
12246;PMS7003;6186;52.022;4.692;2023-10-13T02:57:02;4.50;4.00;2.00
12246;PMS7003;6186;52.022;4.692;2023-10-13T02:59:28;4.00;4.00;2.00
12246;PMS7003;6186;52.022;4.692;2023-10-13T03:01:53;3.80;3.40;1.80
12246;PMS7003;6186;52.022;4.692;2023-10-13T03:04:19;3.75;3.25;1.00
12246;PMS7003;6186;52.022;4.692;2023-10-13T03:06:44;4.00;3.75;2.00
12246;PMS7003;6186;52.022;4.692;2023-10-13T03:09:09;4.00;3.75;1.00
12246;PMS7003;6186;52.022;4.692;2023-10-13T03:11:35;3.40;3.00;1.00
12246;PMS7003;6186;52.022;4.692;2023-10-13T03:14:00;4.75;4.00;1.75
12246;PMS7003;6186;52.022;4.692;2023-10-13T03:16:25;3.00;3.00;2.00
12246;PMS7003;6186;52.022;4.692;2023-10-13T03:18:50;5.00;4.00;2.00
12246;PMS7003;6186;52.022;4.692;2023-10-13T03:21:16;4.00;4.00;2.00
12246;PMS7003;6186;52.022;4.692;2023-10-13T03:23:41;4.00;3.75;2.00
12246;PMS7003;6186;52.022;4.692;2023-10-13T03:26:09;4.25;4.25;2.00
12246;PMS7003;6186;52.022;4.692;2023-10-13T03:28:34;3.00;3.00;1.00
12246;PMS7003;6186;52.022;4.692;2023-10-13T03:30:59;4.50;4.50;2.00
12246;PMS7003;6186;52.022;4.692;2023-10-13T03:33:24;5.00;4.00;2.00
12246;PMS7003;6186;52.022;4.692;2023-10-13T03:35:50;4.75;4.25;2.00
12246;PMS7003;6186;52.022;4.692;2023-10-13T03:38:15;4.00;4.00;2.00
12246;PMS7003;6186;52.022;4.692;2023-10-13T03:40:40;4.00;4.00;1.75
12246;PMS7003;6186;52.022;4.692;2023-10-13T03:43:05;3.00;3.00;1.25
12246;PMS7003;6186;52.022;4.692;2023-10-13T03:45:31;4.00;3.00;1.50
12246;PMS7003;6186;52.022;4.692;2023-10-13T03:48:07;4.20;3.60;2.00
12246;PMS7003;6186;52.022;4.692;2023-10-13T03:50:39;2.00;2.00;1.00
12246;PMS7003;6186;52.022;4.692;2023-10-13T03:53:05;3.60;3.60;2.00
12246;PMS7003;6186;52.022;4.692;2023-10-13T03:55:30;3.00;3.00;1.00
12246;PMS7003;6186;52.022;4.692;2023-10-13T03:57:56;3.00;3.00;1.00
12246;PMS7003;6186;52.022;4.692;2023-10-13T04:00:22;4.00;3.00;1.75
12246;PMS7003;6186;52.022;4.692;2023-10-13T04:02:47;3.00;3.00;1.00
12246;PMS7003;6186;52.022;4.692;2023-10-13T04:05:12;5.00;3.75;1.00
12246;PMS7003;6186;52.022;4.692;2023-10-13T04:07:38;5.00;3.25;1.00
12246;PMS7003;6186;52.022;4.692;2023-10-13T04:10:03;5.00;4.25;2.00
12246;PMS7003;6186;52.022;4.692;2023-10-13T04:12:28;4.00;4.00;2.00
12246;PMS7003;6186;52.022;4.692;2023-10-13T04:14:54;6.75;6.00;3.00
12246;PMS7003;6186;52.022;4.692;2023-10-13T04:17:19;7.00;6.00;2.00
12246;PMS7003;6186;52.022;4.692;2023-10-13T04:19:44;6.00;5.00;3.00
12246;PMS7003;6186;52.022;4.692;2023-10-13T04:22:09;8.50;6.00;3.00
12246;PMS7003;6186;52.022;4.692;2023-10-13T04:24:35;6.00;6.00;3.00
12246;PMS7003;6186;52.022;4.692;2023-10-13T04:27:00;5.75;5.75;3.00
12246;PMS7003;6186;52.022;4.692;2023-10-13T04:29:25;6.25;6.00;3.00
12246;PMS7003;6186;52.022;4.692;2023-10-13T04:31:54;8.00;5.75;3.00
12246;PMS7003;6186;52.022;4.692;2023-10-13T04:34:20;5.00;5.00;3.00
12246;PMS7003;6186;52.022;4.692;2023-10-13T04:36:46;5.25;4.50;2.00
12246;PMS7003;6186;52.022;4.692;2023-10-13T04:39:11;5.00;4.00;1.25
12246;PMS7003;6186;52.022;4.692;2023-10-13T04:41:37;3.00;3.00;2.00
12246;PMS7003;6186;52.022;4.692;2023-10-13T04:44:03;5.00;3.80;2.00
12246;PMS7003;6186;52.022;4.692;2023-10-13T04:46:29;5.00;5.00;2.40
12246;PMS7003;6186;52.022;4.692;2023-10-13T04:48:54;4.50;3.75;2.00
12246;PMS7003;6186;52.022;4.692;2023-10-13T04:51:20;4.00;4.00;2.00
12246;PMS7003;6186;52.022;4.692;2023-10-13T04:53:45;5.00;4.00;2.00
12246;PMS7003;6186;52.022;4.692;2023-10-13T04:56:10;5.50;5.00;2.50
12246;PMS7003;6186;52.022;4.692;2023-10-13T04:58:36;4.25;3.75;2.00
12246;PMS7003;6186;52.022;4.692;2023-10-13T05:03:26;5.00;4.00;2.00
12246;PMS7003;6186;52.022;4.692;2023-10-13T05:05:52;5.00;5.00;2.75
12246;PMS7003;6186;52.022;4.692;2023-10-13T05:08:17;5.00;4.50;2.00
12246;PMS7003;6186;52.022;4.692;2023-10-13T05:10:42;6.50;5.00;2.50
12246;PMS7003;6186;52.022;4.692;2023-10-13T05:13:07;5.00;4.25;2.75
12246;PMS7003;6186;52.022;4.692;2023-10-13T05:15:33;5.00;4.00;2.00
12246;PMS7003;6186;52.022;4.692;2023-10-13T05:17:58;5.75;5.00;2.25
12246;PMS7003;6186;52.022;4.692;2023-10-13T05:20:23;3.50;3.50;1.75
12246;PMS7003;6186;52.022;4.692;2023-10-13T05:22:48;6.00;5.75;3.00
12246;PMS7003;6186;52.022;4.692;2023-10-13T05:25:13;5.00;5.00;2.00
12246;PMS7003;6186;52.022;4.692;2023-10-13T05:27:39;5.25;4.75;2.50
12246;PMS7003;6186;52.022;4.692;2023-10-13T05:30:04;4.00;4.00;2.00
12246;PMS7003;6186;52.022;4.692;2023-10-13T05:32:30;5.00;4.00;2.00
12246;PMS7003;6186;52.022;4.692;2023-10-13T05:34:56;3.00;3.00;2.00
12246;PMS7003;6186;52.022;4.692;2023-10-13T05:37:21;3.75;3.00;1.75
12246;PMS7003;6186;52.022;4.692;2023-10-13T05:39:46;3.00;3.00;1.00
12246;PMS7003;6186;52.022;4.692;2023-10-13T05:42:11;5.00;4.00;2.00
12246;PMS7003;6186;52.022;4.692;2023-10-13T05:44:36;4.25;4.25;2.00
12246;PMS7003;6186;52.022;4.692;2023-10-13T05:47:02;5.00;4.75;2.00
12246;PMS7003;6186;52.022;4.692;2023-10-13T05:49:27;3.50;3.00;1.25
12246;PMS7003;6186;52.022;4.692;2023-10-13T05:51:52;3.00;3.00;1.00
12246;PMS7003;6186;52.022;4.692;2023-10-13T05:54:17;4.50;3.75;1.00
12246;PMS7003;6186;52.022;4.692;2023-10-13T05:56:43;3.75;3.75;1.00
12246;PMS7003;6186;52.022;4.692;2023-10-13T05:59:10;5.00;3.40;2.00
12246;PMS7003;6186;52.022;4.692;2023-10-13T06:01:35;3.75;3.25;1.25
12246;PMS7003;6186;52.022;4.692;2023-10-13T06:04:00;2.75;2.75;1.25
12246;PMS7003;6186;52.022;4.692;2023-10-13T06:06:26;3.00;3.00;1.00
12246;PMS7003;6186;52.022;4.692;2023-10-13T06:08:51;3.00;2.50;1.00
12246;PMS7003;6186;52.022;4.692;2023-10-13T06:11:16;4.00;3.25;1.00
12246;PMS7003;6186;52.022;4.692;2023-10-13T06:13:41;4.00;3.00;1.00
12246;PMS7003;6186;52.022;4.692;2023-10-13T06:18:32;3.00;2.40;1.00
12246;PMS7003;6186;52.022;4.692;2023-10-13T06:20:58;3.00;3.00;1.00
12246;PMS7003;6186;52.022;4.692;2023-10-13T06:23:26;4.40;4.40;2.00
12246;PMS7003;6186;52.022;4.692;2023-10-13T06:25:51;5.00;4.00;2.00
12246;PMS7003;6186;52.022;4.692;2023-10-13T06:28:17;4.00;4.00;2.00
12246;PMS7003;6186;52.022;4.692;2023-10-13T06:30:42;4.00;3.50;1.25
12246;PMS7003;6186;52.022;4.692;2023-10-13T06:33:08;4.00;4.00;2.00
12246;PMS7003;6186;52.022;4.692;2023-10-13T06:35:33;4.00;4.00;2.00
12246;PMS7003;6186;52.022;4.692;2023-10-13T06:37:58;6.00;4.00;2.00
12246;PMS7003;6186;52.022;4.692;2023-10-13T06:40:23;5.00;5.00;3.00
12246;PMS7003;6186;52.022;4.692;2023-10-13T06:42:48;6.00;5.00;3.00
12246;PMS7003;6186;52.022;4.692;2023-10-13T06:45:14;5.25;4.50;2.00
12246;PMS7003;6186;52.022;4.692;2023-10-13T06:47:39;6.00;6.00;3.00
12246;PMS7003;6186;52.022;4.692;2023-10-13T06:50:04;6.25;6.25;3.00
12246;PMS7003;6186;52.022;4.692;2023-10-13T06:52:30;6.75;6.00;4.00
12246;PMS7003;6186;52.022;4.692;2023-10-13T06:54:55;5.00;5.00;3.00
12246;PMS7003;6186;52.022;4.692;2023-10-13T06:57:20;7.75;7.00;4.00
12246;PMS7003;6186;52.022;4.692;2023-10-13T06:59:46;6.75;6.00;3.50
12246;PMS7003;6186;52.022;4.692;2023-10-13T07:02:12;7.00;6.00;3.60
12246;PMS7003;6186;52.022;4.692;2023-10-13T07:04:37;7.50;6.50;4.00
12246;PMS7003;6186;52.022;4.692;2023-10-13T07:07:03;8.00;8.00;4.00
12246;PMS7003;6186;52.022;4.692;2023-10-13T07:09:28;6.00;6.00;4.00
12246;PMS7003;6186;52.022;4.692;2023-10-13T07:11:53;8.50;7.50;4.00
12246;PMS7003;6186;52.022;4.692;2023-10-13T07:14:18;7.00;6.00;4.00
12246;PMS7003;6186;52.022;4.692;2023-10-13T07:16:44;9.25;8.50;5.25
12246;PMS7003;6186;52.022;4.692;2023-10-13T07:19:20;6.80;6.00;3.60
12246;PMS7003;6186;52.022;4.692;2023-10-13T07:21:46;8.00;7.00;4.00
12246;PMS7003;6186;52.022;4.692;2023-10-13T07:24:12;6.75;6.00;4.00
12246;PMS7003;6186;52.022;4.692;2023-10-13T07:26:38;9.00;8.00;5.00
12246;PMS7003;6186;52.022;4.692;2023-10-13T07:29:03;12.25;9.25;5.00
12246;PMS7003;6186;52.022;4.692;2023-10-13T07:31:28;10.00;7.25;4.25
12246;PMS7003;6186;52.022;4.692;2023-10-13T07:33:53;8.00;7.50;4.75
12246;PMS7003;6186;52.022;4.692;2023-10-13T07:36:19;8.00;7.25;4.00
12246;PMS7003;6186;52.022;4.692;2023-10-13T07:38:47;6.25;6.00;4.00
12246;PMS7003;6186;52.022;4.692;2023-10-13T07:41:12;6.40;5.60;3.40
12246;PMS7003;6186;52.022;4.692;2023-10-13T07:43:37;6.25;6.25;3.50
12246;PMS7003;6186;52.022;4.692;2023-10-13T07:46:03;8.25;8.00;4.00
12246;PMS7003;6186;52.022;4.692;2023-10-13T07:48:28;7.00;5.75;4.00
12246;PMS7003;6186;52.022;4.692;2023-10-13T07:51:06;6.00;5.00;3.00
12246;PMS7003;6186;52.022;4.692;2023-10-13T07:53:33;7.40;6.80;4.00
12246;PMS7003;6186;52.022;4.692;2023-10-13T07:55:58;6.75;6.00;3.00
12246;PMS7003;6186;52.022;4.692;2023-10-13T07:58:23;7.00;6.00;3.00
12246;PMS7003;6186;52.022;4.692;2023-10-13T08:00:49;7.75;6.00;3.50
12246;PMS7003;6186;52.022;4.692;2023-10-13T08:03:14;6.00;6.00;3.00
12246;PMS7003;6186;52.022;4.692;2023-10-13T08:05:39;7.75;5.25;3.00
12246;PMS7003;6186;52.022;4.692;2023-10-13T08:08:05;6.00;6.00;3.00
12246;PMS7003;6186;52.022;4.692;2023-10-13T08:10:35;6.60;6.00;3.00
12246;PMS7003;6186;52.022;4.692;2023-10-13T08:13:01;5.40;5.40;3.60
12246;PMS7003;6186;52.022;4.692;2023-10-13T08:15:26;6.00;5.25;3.25
12246;PMS7003;6186;52.022;4.692;2023-10-13T08:17:51;6.25;6.00;3.00
12246;PMS7003;6186;52.022;4.692;2023-10-13T08:20:16;7.50;6.00;3.50
12246;PMS7003;6186;52.022;4.692;2023-10-13T08:22:42;7.00;6.00;3.50
12246;PMS7003;6186;52.022;4.692;2023-10-13T08:25:07;6.00;5.00;2.00
12246;PMS7003;6186;52.022;4.692;2023-10-13T08:27:32;6.00;5.25;3.00
12246;PMS7003;6186;52.022;4.692;2023-10-13T08:29:58;5.00;5.00;3.50
12246;PMS7003;6186;52.022;4.692;2023-10-13T08:32:29;7.00;6.00;3.00
12246;PMS7003;6186;52.022;4.692;2023-10-13T08:34:55;4.80;4.80;3.00
12246;PMS7003;6186;52.022;4.692;2023-10-13T08:37:21;7.00;6.40;3.40
12246;PMS7003;6186;52.022;4.692;2023-10-13T08:39:47;6.75;6.00;4.00
12246;PMS7003;6186;52.022;4.692;2023-10-13T08:42:12;6.20;6.00;3.20
12246;PMS7003;6186;52.022;4.692;2023-10-13T08:44:43;6.00;5.75;3.00
12246;PMS7003;6186;52.022;4.692;2023-10-13T08:47:10;7.20;7.00;3.00
12246;PMS7003;6186;52.022;4.692;2023-10-13T08:49:35;6.50;6.25;3.50
12246;PMS7003;6186;52.022;4.692;2023-10-13T08:52:00;6.75;5.25;3.00
12246;PMS7003;6186;52.022;4.692;2023-10-13T08:54:27;7.00;7.00;4.20
12246;PMS7003;6186;52.022;4.692;2023-10-13T08:56:52;5.00;5.00;2.75
12246;PMS7003;6186;52.022;4.692;2023-10-13T08:59:19;6.00;6.00;3.60
12246;PMS7003;6186;52.022;4.692;2023-10-13T09:01:44;5.50;4.75;3.00
12246;PMS7003;6186;52.022;4.692;2023-10-13T09:04:10;7.00;5.50;3.75
12246;PMS7003;6186;52.022;4.692;2023-10-13T09:06:36;7.20;7.00;4.00
12246;PMS7003;6186;52.022;4.692;2023-10-13T09:09:06;5.25;5.00;3.00
12246;PMS7003;6186;52.022;4.692;2023-10-13T09:11:32;6.00;4.60;2.40
12246;PMS7003;6186;52.022;4.692;2023-10-13T09:13:58;6.20;5.40;3.00
12246;PMS7003;6186;52.022;4.692;2023-10-13T09:16:23;7.25;6.00;3.00
12246;PMS7003;6186;52.022;4.692;2023-10-13T09:18:49;6.00;5.25;3.00
12246;PMS7003;6186;52.022;4.692;2023-10-13T09:21:15;6.00;6.00;3.00
12246;PMS7003;6186;52.022;4.692;2023-10-13T09:23:45;6.60;6.00;4.00
12246;PMS7003;6186;52.022;4.692;2023-10-13T09:26:11;6.00;6.00;3.20
12246;PMS7003;6186;52.022;4.692;2023-10-13T09:28:36;7.00;5.50;2.50
12246;PMS7003;6186;52.022;4.692;2023-10-13T09:31:01;7.75;7.00;4.00
12246;PMS7003;6186;52.022;4.692;2023-10-13T09:33:27;8.75;7.00;3.50
12246;PMS7003;6186;52.022;4.692;2023-10-13T09:35:53;6.80;6.00;4.00
12246;PMS7003;6186;52.022;4.692;2023-10-13T09:38:19;8.60;6.60;3.80
12246;PMS7003;6186;52.022;4.692;2023-10-13T09:40:45;5.25;5.25;3.00
12246;PMS7003;6186;52.022;4.692;2023-10-13T09:43:10;6.50;5.50;3.00
12246;PMS7003;6186;52.022;4.692;2023-10-13T09:45:35;9.00;7.00;4.25
12246;PMS7003;6186;52.022;4.692;2023-10-13T09:48:01;5.50;5.50;3.00
12246;PMS7003;6186;52.022;4.692;2023-10-13T09:50:28;7.20;6.00;3.00
12246;PMS7003;6186;52.022;4.692;2023-10-13T09:52:55;6.00;6.00;3.00
12246;PMS7003;6186;52.022;4.692;2023-10-13T09:58:03;5.20;5.20;3.00
12246;PMS7003;6186;52.022;4.692;2023-10-13T10:00:31;6.00;6.00;3.20
12246;PMS7003;6186;52.022;4.692;2023-10-13T10:02:58;6.00;6.00;3.00
12246;PMS7003;6186;52.022;4.692;2023-10-13T10:05:25;6.00;5.50;3.25
12246;PMS7003;6186;52.022;4.692;2023-10-13T10:07:54;9.20;8.20;4.60
12246;PMS7003;6186;52.022;4.692;2023-10-13T10:10:21;6.80;6.00;3.80
12246;PMS7003;6186;52.022;4.692;2023-10-13T10:12:59;7.80;7.40;4.20
12246;PMS7003;6186;52.022;4.692;2023-10-13T10:15:34;7.20;7.20;4.00
12246;PMS7003;6186;52.022;4.692;2023-10-13T10:18:01;8.00;7.20;4.00
12246;PMS7003;6186;52.022;4.692;2023-10-13T10:20:31;7.20;6.80;4.00
12246;PMS7003;6186;52.022;4.692;2023-10-13T10:22:58;5.40;4.60;2.80
12246;PMS7003;6186;52.022;4.692;2023-10-13T10:25:33;8.40;6.40;3.60
12246;PMS7003;6186;52.022;4.692;2023-10-13T10:27:59;7.40;5.20;2.40
12246;PMS7003;6186;52.022;4.692;2023-10-13T10:30:32;7.40;7.20;3.40
12246;PMS7003;6186;52.022;4.692;2023-10-13T10:32:59;6.20;6.20;3.00
12246;PMS7003;6186;52.022;4.692;2023-10-13T10:35:25;7.40;5.00;3.00
12246;PMS7003;6186;52.022;4.692;2023-10-13T10:37:51;7.20;6.20;3.00
12246;PMS7003;6186;52.022;4.692;2023-10-13T10:40:20;7.80;6.60;3.80
12246;PMS7003;6186;52.022;4.692;2023-10-13T10:42:50;12.00;9.25;4.50
12246;PMS7003;6186;52.022;4.692;2023-10-13T10:45:16;8.20;7.40;3.80
12246;PMS7003;6186;52.022;4.692;2023-10-13T10:47:47;8.00;7.00;3.75
12246;PMS7003;6186;52.022;4.692;2023-10-13T10:50:13;6.60;5.40;2.40
12246;PMS7003;6186;52.022;4.692;2023-10-13T10:52:38;7.25;6.00;3.00
12246;PMS7003;6186;52.022;4.692;2023-10-13T10:55:03;6.75;6.75;4.00
12246;PMS7003;6186;52.022;4.692;2023-10-13T10:57:29;7.75;7.25;4.25
12246;PMS7003;6186;52.022;4.692;2023-10-13T10:59:54;7.50;7.25;3.75
12246;PMS7003;6186;52.022;4.692;2023-10-13T11:02:29;7.50;7.00;4.00
12246;PMS7003;6186;52.022;4.692;2023-10-13T11:04:55;7.00;7.00;4.00
12246;PMS7003;6186;52.022;4.692;2023-10-13T11:07:21;9.00;8.25;4.75
12246;PMS7003;6186;52.022;4.692;2023-10-13T11:09:47;6.80;6.80;3.80
12246;PMS7003;6186;52.022;4.692;2023-10-13T11:12:13;7.50;6.25;4.00
12246;PMS7003;6186;52.022;4.692;2023-10-13T11:14:39;6.60;6.60;4.40
12246;PMS7003;6186;52.022;4.692;2023-10-13T11:17:04;9.00;7.25;3.25
12246;PMS7003;6186;52.022;4.692;2023-10-13T11:19:36;7.25;7.00;3.25
12246;PMS7003;6186;52.022;4.692;2023-10-13T11:22:16;10.00;7.60;4.20
12246;PMS7003;6186;52.022;4.692;2023-10-13T11:24:42;9.60;8.20;4.60
12246;PMS7003;6186;52.022;4.692;2023-10-13T11:27:14;8.25;7.50;5.00
12246;PMS7003;6186;52.022;4.692;2023-10-13T11:29:40;7.60;7.00;4.00
12246;PMS7003;6186;52.022;4.692;2023-10-13T11:32:05;9.50;8.25;4.50
12246;PMS7003;6186;52.022;4.692;2023-10-13T11:34:30;7.75;6.75;4.00
12246;PMS7003;6186;52.022;4.692;2023-10-13T11:36:55;11.00;9.50;5.25
12246;PMS7003;6186;52.022;4.692;2023-10-13T11:39:21;9.25;8.50;4.50
12246;PMS7003;6186;52.022;4.692;2023-10-13T11:41:46;10.25;8.75;4.50
12246;PMS7003;6186;52.022;4.692;2023-10-13T11:44:11;8.00;8.00;4.25
12246;PMS7003;6186;52.022;4.692;2023-10-13T11:46:36;7.75;7.75;4.25
12246;PMS7003;6186;52.022;4.692;2023-10-13T11:49:05;9.25;8.00;3.75
12246;PMS7003;6186;52.022;4.692;2023-10-13T11:51:31;7.40;6.40;3.40
12246;PMS7003;6186;52.022;4.692;2023-10-13T11:53:57;8.50;7.75;4.25
12246;PMS7003;6186;52.022;4.692;2023-10-13T11:56:22;7.80;7.40;4.60
12246;PMS7003;6186;52.022;4.692;2023-10-13T11:58:48;7.75;7.25;4.00
12246;PMS7003;6186;52.022;4.692;2023-10-13T12:01:14;10.00;8.25;3.75
12246;PMS7003;6186;52.022;4.692;2023-10-13T12:03:43;8.80;7.60;5.00
12246;PMS7003;6186;52.022;4.692;2023-10-13T12:06:10;9.20;7.80;4.00
12246;PMS7003;6186;52.022;4.692;2023-10-13T12:08:35;12.00;8.50;5.75
12246;PMS7003;6186;52.022;4.692;2023-10-13T12:11:00;9.75;8.75;5.00
12246;PMS7003;6186;52.022;4.692;2023-10-13T12:13:25;9.25;9.00;5.00
12246;PMS7003;6186;52.022;4.692;2023-10-13T12:15:51;8.50;7.50;4.50
12246;PMS7003;6186;52.022;4.692;2023-10-13T12:18:16;8.00;7.00;5.00
12246;PMS7003;6186;52.022;4.692;2023-10-13T12:20:41;9.25;7.25;4.50
12246;PMS7003;6186;52.022;4.692;2023-10-13T12:23:06;9.25;8.25;5.00
12246;PMS7003;6186;52.022;4.692;2023-10-13T12:25:32;11.00;8.00;4.75
12246;PMS7003;6186;52.022;4.692;2023-10-13T12:27:57;10.00;9.00;5.00
12246;PMS7003;6186;52.022;4.692;2023-10-13T12:30:23;9.50;8.75;5.25
12246;PMS7003;6186;52.022;4.692;2023-10-13T12:32:49;8.40;7.60;4.40
12246;PMS7003;6186;52.022;4.692;2023-10-13T12:35:15;8.20;8.00;5.00
12246;PMS7003;6186;52.022;4.692;2023-10-13T12:37:40;8.75;8.50;4.50
12246;PMS7003;6186;52.022;4.692;2023-10-13T12:40:05;8.25;8.25;5.00
12246;PMS7003;6186;52.022;4.692;2023-10-13T12:42:31;9.20;8.60;5.20
12246;PMS7003;6186;52.022;4.692;2023-10-13T12:44:57;7.25;6.50;4.25
12246;PMS7003;6186;52.022;4.692;2023-10-13T12:47:22;10.25;8.50;5.00
12246;PMS7003;6186;52.022;4.692;2023-10-13T12:49:47;8.25;7.50;4.50
12246;PMS7003;6186;52.022;4.692;2023-10-13T12:52:13;7.00;7.00;4.00
12246;PMS7003;6186;52.022;4.692;2023-10-13T12:54:38;9.00;7.20;4.20
12246;PMS7003;6186;52.022;4.692;2023-10-13T12:57:04;8.00;8.00;5.00
12246;PMS7003;6186;52.022;4.692;2023-10-13T12:59:29;7.75;6.75;4.25
12246;PMS7003;6186;52.022;4.692;2023-10-13T13:01:54;10.00;8.50;4.00
12246;PMS7003;6186;52.022;4.692;2023-10-13T13:04:19;9.75;8.25;6.00
12246;PMS7003;6186;52.022;4.692;2023-10-13T13:06:45;9.50;8.25;6.00
12246;PMS7003;6186;52.022;4.692;2023-10-13T13:09:11;9.60;9.00;5.00
12246;PMS7003;6186;52.022;4.692;2023-10-13T13:11:36;9.00;8.50;4.50
12246;PMS7003;6186;52.022;4.692;2023-10-13T13:14:01;10.25;8.50;4.50
12246;PMS7003;6186;52.022;4.692;2023-10-13T13:16:26;11.25;9.50;5.50
12246;PMS7003;6186;52.022;4.692;2023-10-13T13:18:52;8.00;7.50;4.25
12246;PMS7003;6186;52.022;4.692;2023-10-13T13:21:17;10.00;8.00;4.50
12246;PMS7003;6186;52.022;4.692;2023-10-13T13:23:42;12.50;10.50;7.00
12246;PMS7003;6186;52.022;4.692;2023-10-13T13:26:08;9.25;8.00;4.25
12246;PMS7003;6186;52.022;4.692;2023-10-13T13:28:33;12.50;10.00;5.50
12246;PMS7003;6186;52.022;4.692;2023-10-13T13:30:58;8.50;8.50;4.50
12246;PMS7003;6186;52.022;4.692;2023-10-13T13:33:24;8.00;8.00;5.00
12246;PMS7003;6186;52.022;4.692;2023-10-13T13:35:49;8.25;8.00;5.00
12246;PMS7003;6186;52.022;4.692;2023-10-13T13:38:17;9.00;8.60;5.40
12246;PMS7003;6186;52.022;4.692;2023-10-13T13:40:43;9.75;9.00;6.25
12246;PMS7003;6186;52.022;4.692;2023-10-13T13:43:08;11.00;10.50;6.00
12246;PMS7003;6186;52.022;4.692;2023-10-13T13:45:33;10.75;10.25;5.50
12246;PMS7003;6186;52.022;4.692;2023-10-13T13:47:58;9.00;8.50;4.75
12246;PMS7003;6186;52.022;4.692;2023-10-13T13:50:24;7.75;7.25;4.50
12246;PMS7003;6186;52.022;4.692;2023-10-13T13:52:51;10.20;8.60;4.80
12246;PMS7003;6186;52.022;4.692;2023-10-13T13:55:17;8.20;8.20;5.40
12246;PMS7003;6186;52.022;4.692;2023-10-13T13:57:42;9.25;8.50;4.50
12246;PMS7003;6186;52.022;4.692;2023-10-13T14:00:08;9.20;7.80;4.80
12246;PMS7003;6186;52.022;4.692;2023-10-13T14:02:34;10.60;9.20;5.00
12246;PMS7003;6186;52.022;4.692;2023-10-13T14:05:00;8.25;8.25;4.25
12246;PMS7003;6186;52.022;4.692;2023-10-13T14:07:25;9.50;8.25;4.00
12246;PMS7003;6186;52.022;4.692;2023-10-13T14:09:50;9.00;6.75;4.25
12246;PMS7003;6186;52.022;4.692;2023-10-13T14:12:15;6.75;6.50;4.25
12246;PMS7003;6186;52.022;4.692;2023-10-13T14:14:40;6.50;6.25;2.75
12246;PMS7003;6186;52.022;4.692;2023-10-13T14:17:06;5.00;4.50;2.25
12246;PMS7003;6186;52.022;4.692;2023-10-13T14:19:31;4.75;4.25;2.50
12246;PMS7003;6186;52.022;4.692;2023-10-13T14:21:57;5.00;4.25;2.75
12246;PMS7003;6186;52.022;4.692;2023-10-13T14:24:23;3.20;3.20;2.00
12246;PMS7003;6186;52.022;4.692;2023-10-13T14:26:49;5.60;4.00;1.60
12246;PMS7003;6186;52.022;4.692;2023-10-13T14:29:14;4.00;3.00;2.00
12246;PMS7003;6186;52.022;4.692;2023-10-13T14:31:39;4.00;4.00;2.00
12246;PMS7003;6186;52.022;4.692;2023-10-13T14:34:05;4.75;3.75;1.75
12246;PMS7003;6186;52.022;4.692;2023-10-13T14:36:30;5.00;4.00;2.00